Seaexpressii — HO4619 — position and weather

sailwx.info

Track history (hours):
 
Tides and Currents Weather Stations Pressure Air Temp Water Temp Dewpoint Dewpoint Depression Visibility Wind Speed Wind Dir Waves Ship Positions

Seaexpressii

Last reported at 2015-Jul-31 07:27 UTC. Time now 2015-Aug-02 14:23 UTC.
Position N 26°05' W 079°33'.

Length 37 m; draft 2.1 m.

Type: Ship (hazmat cat A). MMSI: 356449000.

Date/timePositionNaut miles runAvg speedWind from/ knotsBaromVisibWave heightAir tempDewpointWater temp
2015-Jul-31 07:27N 26°05' W 079°33'1010.2
2015-Jul-31 06:30N 26°05' W 079°43'1010.6
2015-Jul-31 05:33N 26°05' W 079°55'1010.1
2015-Jul-31 04:33N 26°06' W 080°06'3 2.7
2015-Jul-31 03:33N 26°04' W 080°08'0 0.0
2015-Jul-31 02:33N 26°04' W 080°08'0 0.0
2015-Jul-31 01:33N 26°04' W 080°08'0 0.0
2015-Jul-31 00:33N 26°04' W 080°08'0 0.0
2015-Jul-30 23:33N 26°04' W 080°08'0 0.0
2015-Jul-30 22:33N 26°04' W 080°08'4 4.3
2015-Jul-30 21:33N 26°05' W 080°03'1010.2
2015-Jul-30 20:33N 26°02' W 079°53'1010.5
2015-Jul-30 19:33N 25°59' W 079°41'1110.6
2015-Jul-30 18:32N 25°56' W 079°30'23 0.6
2015-Jul-29 01:22N 26°05' W 079°06'1810.0
2015-Jul-28 23:32N 26°05' W 079°27'9 9.8
2015-Jul-28 22:33N 26°05' W 079°37'10 9.6
2015-Jul-28 21:33N 26°05' W 079°48'10 9.8
2015-Jul-28 20:33N 26°05' W 079°59'8 7.9
2015-Jul-28 19:33N 26°04' W 080°07'0 0.4
2015-Jul-28 18:33N 26°04' W 080°08'0 0.0
2015-Jul-28 17:33N 26°04' W 080°08'0 0.0
2015-Jul-28 16:33N 26°04' W 080°08'0 0.0
2015-Jul-28 15:33N 26°04' W 080°08'0 0.0
2015-Jul-28 14:33N 26°04' W 080°08'0 0.0
2015-Jul-28 13:33N 26°04' W 080°08'0 0.0
2015-Jul-28 12:33N 26°04' W 080°08'0 0.0
2015-Jul-28 11:33N 26°04' W 080°08'0 0.0
2015-Jul-28 10:33N 26°04' W 080°08'0 0.0
2015-Jul-28 09:33N 26°04' W 080°08'0 0.0
2015-Jul-28 08:33N 26°04' W 080°08'0 0.0
2015-Jul-28 07:33N 26°04' W 080°08'0 0.0
2015-Jul-28 06:33N 26°04' W 080°08'0 0.0
2015-Jul-28 05:33N 26°04' W 080°08'0 0.0
2015-Jul-28 04:33N 26°04' W 080°08'0 0.0
2015-Jul-28 03:33N 26°04' W 080°08'0 0.0
2015-Jul-28 02:33N 26°04' W 080°08'0 0.0
2015-Jul-28 01:32N 26°04' W 080°08'0 0.0
2015-Jul-28 00:33N 26°04' W 080°08'0 0.0
2015-Jul-27 23:33N 26°04' W 080°08'0 0.0
2015-Jul-27 22:33N 26°04' W 080°08'0 0.0
2015-Jul-27 21:33N 26°04' W 080°08'0 0.0
2015-Jul-27 20:33N 26°04' W 080°08'0 0.0
2015-Jul-27 19:33N 26°04' W 080°08'0 0.0
2015-Jul-27 18:33N 26°04' W 080°08'0 0.0
2015-Jul-27 17:33N 26°04' W 080°08'0 0.0
2015-Jul-27 16:33N 26°04' W 080°08'0 0.0
2015-Jul-27 15:33N 26°04' W 080°08'0 0.0
2015-Jul-27 14:33N 26°04' W 080°08'0 0.0
2015-Jul-27 13:33N 26°04' W 080°08'0 0.0
2015-Jul-27 12:33N 26°04' W 080°08'0 0.0
2015-Jul-27 11:33N 26°04' W 080°08'6 5.5
2015-Jul-27 10:33N 26°04' W 080°02'9 9.5
2015-Jul-27 09:33N 26°02' W 079°52'1010.1
2015-Jul-27 08:33N 25°59' W 079°41'1010.1
2015-Jul-27 07:33N 25°56' W 079°30'  
2015-Jul-24 20:30N 26°05' W 079°37'9 9.6
2015-Jul-24 19:33N 26°05' W 079°47'9 9.4
2015-Jul-24 18:33N 26°05' W 079°58'8 8.3
2015-Jul-24 17:33N 26°04' W 080°07'1 1.2
2015-Jul-24 16:33N 26°04' W 080°08'0 0.0
2015-Jul-24 15:33N 26°04' W 080°08'0 0.0
2015-Jul-24 14:33N 26°04' W 080°08'0 0.0
2015-Jul-24 13:33N 26°04' W 080°08'2 2.4
2015-Jul-24 12:33N 26°06' W 080°06'1110.7
2015-Jul-24 11:33N 26°03' W 079°55'1110.9
2015-Jul-24 10:33N 25°60' W 079°43'1110.6
2015-Jul-24 09:33N 25°56' W 079°32'  
2015-Jul-22 01:33N 25°57' W 079°34'9 9.0
2015-Jul-22 00:33N 25°60' W 079°44'9 8.9
2015-Jul-21 23:33N 26°02' W 079°53'9 9.0
2015-Jul-21 22:33N 26°05' W 080°03'5 4.6
2015-Jul-21 21:33N 26°04' W 080°08'0 0.0
2015-Jul-21 20:33N 26°04' W 080°08'0 0.0
2015-Jul-21 19:33N 26°04' W 080°08'0 0.0
2015-Jul-21 18:33N 26°04' W 080°08'0 0.0
2015-Jul-21 17:33N 26°04' W 080°08'0 0.0
2015-Jul-21 16:33N 26°04' W 080°08'0 0.0
2015-Jul-21 15:33N 26°04' W 080°08'0 0.0
2015-Jul-21 14:33N 26°04' W 080°08'1 0.8
2015-Jul-21 13:33N 26°04' W 080°07'8 8.0
2015-Jul-21 12:33N 26°04' W 079°58'1110.8
2015-Jul-21 11:33N 26°00' W 079°47'1110.8
2015-Jul-21 10:33N 25°57' W 079°35'  
Track history (hours):
 
Tides and Currents Weather Stations Pressure Air Temp Water Temp Dewpoint Dewpoint Depression Visibility Wind Speed Wind Dir Waves Ship Positions

Seaexpressii

Last reported at 2015-Jul-31 07:27 UTC. Time now 2015-Aug-02 14:23 UTC.
Position N 26°05' W 079°33'.

Length 37 m; draft 2.1 m.

Type: Ship (hazmat cat A). MMSI: 356449000.

Date/timePositionNaut miles runAvg speedWind from/ knotsBaromVisibWave heightAir tempDewpointWater temp
2015-Jul-31 07:27N 26°05' W 079°33'1010.2
2015-Jul-31 06:30N 26°05' W 079°43'1010.6
2015-Jul-31 05:33N 26°05' W 079°55'1010.1
2015-Jul-31 04:33N 26°06' W 080°06'3 2.7
2015-Jul-31 03:33N 26°04' W 080°08'0 0.0
2015-Jul-31 02:33N 26°04' W 080°08'0 0.0
2015-Jul-31 01:33N 26°04' W 080°08'0 0.0
2015-Jul-31 00:33N 26°04' W 080°08'0 0.0
2015-Jul-30 23:33N 26°04' W 080°08'0 0.0
2015-Jul-30 22:33N 26°04' W 080°08'4 4.3
2015-Jul-30 21:33N 26°05' W 080°03'1010.2
2015-Jul-30 20:33N 26°02' W 079°53'1010.5
2015-Jul-30 19:33N 25°59' W 079°41'1110.6
2015-Jul-30 18:32N 25°56' W 079°30'23 0.6
2015-Jul-29 01:22N 26°05' W 079°06'1810.0
2015-Jul-28 23:32N 26°05' W 079°27'9 9.8
2015-Jul-28 22:33N 26°05' W 079°37'10 9.6
2015-Jul-28 21:33N 26°05' W 079°48'10 9.8
2015-Jul-28 20:33N 26°05' W 079°59'8 7.9
2015-Jul-28 19:33N 26°04' W 080°07'0 0.4
2015-Jul-28 18:33N 26°04' W 080°08'0 0.0
2015-Jul-28 17:33N 26°04' W 080°08'0 0.0
2015-Jul-28 16:33N 26°04' W 080°08'0 0.0
2015-Jul-28 15:33N 26°04' W 080°08'0 0.0
2015-Jul-28 14:33N 26°04' W 080°08'0 0.0
2015-Jul-28 13:33N 26°04' W 080°08'0 0.0
2015-Jul-28 12:33N 26°04' W 080°08'0 0.0
2015-Jul-28 11:33N 26°04' W 080°08'0 0.0
2015-Jul-28 10:33N 26°04' W 080°08'0 0.0
2015-Jul-28 09:33N 26°04' W 080°08'0 0.0
2015-Jul-28 08:33N 26°04' W 080°08'0 0.0
2015-Jul-28 07:33N 26°04' W 080°08'0 0.0
2015-Jul-28 06:33N 26°04' W 080°08'0 0.0
2015-Jul-28 05:33N 26°04' W 080°08'0 0.0
2015-Jul-28 04:33N 26°04' W 080°08'0 0.0
2015-Jul-28 03:33N 26°04' W 080°08'0 0.0
2015-Jul-28 02:33N 26°04' W 080°08'0 0.0
2015-Jul-28 01:32N 26°04' W 080°08'0 0.0
2015-Jul-28 00:33N 26°04' W 080°08'0 0.0
2015-Jul-27 23:33N 26°04' W 080°08'0 0.0
2015-Jul-27 22:33N 26°04' W 080°08'0 0.0
2015-Jul-27 21:33N 26°04' W 080°08'0 0.0
2015-Jul-27 20:33N 26°04' W 080°08'0 0.0
2015-Jul-27 19:33N 26°04' W 080°08'0 0.0
2015-Jul-27 18:33N 26°04' W 080°08'0 0.0
2015-Jul-27 17:33N 26°04' W 080°08'0 0.0
2015-Jul-27 16:33N 26°04' W 080°08'0 0.0
2015-Jul-27 15:33N 26°04' W 080°08'0 0.0
2015-Jul-27 14:33N 26°04' W 080°08'0 0.0
2015-Jul-27 13:33N 26°04' W 080°08'0 0.0
2015-Jul-27 12:33N 26°04' W 080°08'0 0.0
2015-Jul-27 11:33N 26°04' W 080°08'6 5.5
2015-Jul-27 10:33N 26°04' W 080°02'9 9.5
2015-Jul-27 09:33N 26°02' W 079°52'1010.1
2015-Jul-27 08:33N 25°59' W 079°41'1010.1
2015-Jul-27 07:33N 25°56' W 079°30'  
2015-Jul-24 20:30N 26°05' W 079°37'9 9.6
2015-Jul-24 19:33N 26°05' W 079°47'9 9.4
2015-Jul-24 18:33N 26°05' W 079°58'8 8.3
2015-Jul-24 17:33N 26°04' W 080°07'1 1.2
2015-Jul-24 16:33N 26°04' W 080°08'0 0.0
2015-Jul-24 15:33N 26°04' W 080°08'0 0.0
2015-Jul-24 14:33N 26°04' W 080°08'0 0.0
2015-Jul-24 13:33N 26°04' W 080°08'2 2.4
2015-Jul-24 12:33N 26°06' W 080°06'1110.7
2015-Jul-24 11:33N 26°03' W 079°55'1110.9
2015-Jul-24 10:33N 25°60' W 079°43'1110.6
2015-Jul-24 09:33N 25°56' W 079°32'  
2015-Jul-22 01:33N 25°57' W 079°34'9 9.0
2015-Jul-22 00:33N 25°60' W 079°44'9 8.9
2015-Jul-21 23:33N 26°02' W 079°53'9 9.0
2015-Jul-21 22:33N 26°05' W 080°03'5 4.6
2015-Jul-21 21:33N 26°04' W 080°08'0 0.0
2015-Jul-21 20:33N 26°04' W 080°08'0 0.0
2015-Jul-21 19:33N 26°04' W 080°08'0 0.0
2015-Jul-21 18:33N 26°04' W 080°08'0 0.0
2015-Jul-21 17:33N 26°04' W 080°08'0 0.0
2015-Jul-21 16:33N 26°04' W 080°08'0 0.0
2015-Jul-21 15:33N 26°04' W 080°08'0 0.0
2015-Jul-21 14:33N 26°04' W 080°08'1 0.8
2015-Jul-21 13:33N 26°04' W 080°07'8 8.0
2015-Jul-21 12:33N 26°04' W 079°58'1110.8
2015-Jul-21 11:33N 26°00' W 079°47'1110.8
2015-Jul-21 10:33N 25°57' W 079°35'  

Dump ship's entire track history